createdAt,value
2019-05-10T00:00:10.396Z,17.30
2019-05-10T00:02:55.081Z,17.52
2019-05-10T00:05:39.497Z,24.25
2019-05-10T00:08:23.878Z,17.60
2019-05-10T00:10:51.639Z,13.98
2019-05-10T00:13:23.490Z,11.48
2019-05-10T00:15:49.640Z,17.10
2019-05-10T00:18:15.471Z,15.60
2019-05-10T00:20:41.329Z,14.20
2019-05-10T00:23:07.173Z,16.80
2019-05-10T00:25:33.046Z,22.02
2019-05-10T00:27:58.922Z,14.73
2019-05-10T00:30:24.756Z,13.22
2019-05-10T00:32:51.194Z,17.77
2019-05-10T00:35:17.024Z,13.80
2019-05-10T00:37:43.246Z,12.82
2019-05-10T00:40:09.139Z,14.78
2019-05-10T00:42:34.958Z,14.07
2019-05-10T00:45:01.569Z,13.30
2019-05-10T00:47:27.757Z,11.57
2019-05-10T00:49:53.506Z,11.15
2019-05-10T00:52:19.384Z,13.25
2019-05-10T00:54:45.209Z,12.07
2019-05-10T00:57:11.483Z,16.40
2019-05-10T00:59:37.356Z,13.55
2019-05-10T01:02:03.165Z,13.43
2019-05-10T01:04:29.311Z,17.65
2019-05-10T01:06:56.681Z,12.28
2019-05-10T01:09:22.610Z,12.35
2019-05-10T01:11:48.476Z,12.23
2019-05-10T01:14:14.314Z,12.35
2019-05-10T01:16:40.459Z,16.77
2019-05-10T01:19:06.677Z,14.75
2019-05-10T01:21:32.409Z,11.95
2019-05-10T01:23:58.315Z,10.65
2019-05-10T01:26:24.149Z,9.98
2019-05-10T01:28:50.018Z,17.17
2019-05-10T01:31:15.945Z,16.87
2019-05-10T01:33:42.422Z,15.50
2019-05-10T01:36:08.645Z,9.40
2019-05-10T01:38:34.480Z,13.18
2019-05-10T01:41:00.698Z,11.18
2019-05-10T01:43:26.585Z,11.33
2019-05-10T01:45:52.749Z,9.03
2019-05-10T01:48:18.589Z,9.20
2019-05-10T01:50:44.806Z,12.43
2019-05-10T01:53:11.228Z,12.03
2019-05-10T01:55:50.736Z,10.80
2019-05-10T01:58:05.334Z,7.92
2019-05-10T02:00:31.513Z,13.15
2019-05-10T02:02:57.969Z,9.70
2019-05-10T02:05:25.256Z,8.05
2019-05-10T02:07:51.086Z,8.40
2019-05-10T02:10:16.906Z,10.20
2019-05-10T02:12:43.369Z,9.65
2019-05-10T02:15:09.303Z,11.57
2019-05-10T02:17:35.198Z,8.35
2019-05-10T02:20:01.657Z,13.62
2019-05-10T02:22:27.485Z,11.12
2019-05-10T02:24:53.383Z,10.32
2019-05-10T02:27:19.205Z,13.38
2019-05-10T02:29:45.258Z,9.55
2019-05-10T02:32:11.122Z,13.15
2019-05-10T02:34:37.392Z,10.20
2019-05-10T02:37:03.620Z,10.80
2019-05-10T02:39:29.485Z,10.85
2019-05-10T02:41:55.349Z,10.78
2019-05-10T02:44:21.484Z,9.45
2019-05-10T02:46:47.322Z,7.30
2019-05-10T02:49:13.209Z,12.60
2019-05-10T02:51:39.352Z,12.78
2019-05-10T02:54:05.179Z,12.33
2019-05-10T02:56:31.709Z,10.55
2019-05-10T02:58:58.449Z,11.03
2019-05-10T03:01:26.188Z,10.72
2019-05-10T03:03:52.545Z,10.00
2019-05-10T03:06:18.396Z,10.63
2019-05-10T03:08:50.826Z,8.98
2019-05-10T03:11:17.302Z,10.75
2019-05-10T03:13:46.722Z,13.80
2019-05-10T03:16:12.618Z,11.90
2019-05-10T03:18:38.449Z,13.62
2019-05-10T03:21:04.277Z,9.70
2019-05-10T03:23:30.581Z,11.30
2019-05-10T03:25:57.628Z,22.62
2019-05-10T03:28:23.476Z,13.32
2019-05-10T03:30:49.668Z,16.80
2019-05-10T03:33:15.510Z,17.37
2019-05-10T03:35:41.357Z,19.95
2019-05-10T03:38:07.531Z,23.20
2019-05-10T03:40:53.553Z,25.45
2019-05-10T03:43:19.655Z,23.30
2019-05-10T03:45:45.522Z,24.10
2019-05-10T03:48:11.710Z,20.12
2019-05-10T03:50:37.583Z,28.95
2019-05-10T03:53:03.414Z,27.62
2019-05-10T03:55:29.278Z,31.42
2019-05-10T03:57:55.101Z,31.75
2019-05-10T04:00:20.962Z,29.52
2019-05-10T04:02:46.811Z,24.10
2019-05-10T04:05:12.631Z,29.60
2019-05-10T04:07:38.557Z,36.98
2019-05-10T04:10:04.831Z,31.40
2019-05-10T04:12:30.662Z,38.13
2019-05-10T04:14:56.526Z,28.17
2019-05-10T04:17:22.374Z,26.68
2019-05-10T04:19:48.218Z,31.27
2019-05-10T04:22:14.082Z,27.32
2019-05-10T04:24:40.226Z,25.27
2019-05-10T04:27:06.456Z,27.77
2019-05-10T04:29:32.440Z,31.17
2019-05-10T04:31:58.275Z,25.77
2019-05-10T04:34:24.108Z,30.02
2019-05-10T04:36:50.557Z,35.30
2019-05-10T04:39:16.373Z,35.03
2019-05-10T04:41:42.713Z,31.45
2019-05-10T04:44:09.235Z,32.25
2019-05-10T04:46:35.464Z,33.40
2019-05-10T04:49:01.344Z,27.52
2019-05-10T04:51:27.181Z,39.15
2019-05-10T04:53:53.326Z,32.90
2019-05-10T04:56:19.212Z,38.70
2019-05-10T04:58:45.065Z,40.52
2019-05-10T05:01:10.989Z,38.33
2019-05-10T05:03:36.868Z,37.67
2019-05-10T05:06:02.794Z,32.95
2019-05-10T05:08:28.674Z,27.82
2019-05-10T05:10:54.886Z,24.95
2019-05-10T05:13:20.721Z,34.73
2019-05-10T05:15:46.934Z,38.30
2019-05-10T05:18:12.841Z,35.58
2019-05-10T05:20:38.704Z,27.95
2019-05-10T05:23:04.573Z,36.38
2019-05-10T05:25:35.357Z,29.45
2019-05-10T05:28:07.289Z,29.52
2019-05-10T05:30:26.139Z,29.95
2019-05-10T05:32:52.329Z,39.10
2019-05-10T05:35:18.158Z,31.73
2019-05-10T05:37:44.014Z,33.80
2019-05-10T05:40:09.876Z,35.10
2019-05-10T05:42:35.720Z,33.85
2019-05-10T05:45:02.990Z,29.07
2019-05-10T05:47:29.301Z,43.85
2019-05-10T05:49:55.129Z,35.80
2019-05-10T05:52:20.973Z,38.13
2019-05-10T05:54:46.833Z,42.33
2019-05-10T05:57:12.673Z,31.60
2019-05-10T05:59:38.883Z,39.78
2019-05-10T06:02:07.622Z,36.23
2019-05-10T06:04:32.595Z,30.35
2019-05-10T06:06:59.453Z,28.05
2019-05-10T06:09:26.495Z,28.07
2019-05-10T06:11:52.370Z,30.43
2019-05-10T06:14:18.213Z,29.27
2019-05-10T06:16:45.139Z,26.87
2019-05-10T06:19:11.741Z,27.85
2019-05-10T06:21:38.422Z,30.05
2019-05-10T06:24:07.367Z,29.42
2019-05-10T06:26:31.934Z,31.17
2019-05-10T06:29:03.372Z,35.75
2019-05-10T06:31:25.534Z,29.63
2019-05-10T06:33:51.445Z,30.40
2019-05-10T06:36:17.267Z,23.92
2019-05-10T06:38:43.005Z,42.03
2019-05-10T06:41:10.323Z,39.03
2019-05-10T06:43:37.549Z,34.95
2019-05-10T06:46:03.394Z,40.38
2019-05-10T06:48:33.547Z,33.02
2019-05-10T06:50:56.895Z,31.80
2019-05-10T06:53:23.559Z,34.25
2019-05-10T06:55:49.573Z,29.35
2019-05-10T06:58:15.445Z,34.73
2019-05-10T07:00:45.032Z,40.92
2019-05-10T07:03:09.501Z,37.67
2019-05-10T07:05:35.376Z,34.53
2019-05-10T07:08:13.907Z,36.13
2019-05-10T07:10:33.790Z,36.68
2019-05-10T07:13:02.961Z,42.23
2019-05-10T07:15:24.669Z,38.35
2019-05-10T07:17:50.551Z,35.70
2019-05-10T07:20:16.391Z,36.03
2019-05-10T07:22:42.216Z,37.05
2019-05-10T07:25:08.089Z,36.93
2019-05-10T07:27:36.541Z,39.55
2019-05-10T07:30:02.043Z,39.55
2019-05-10T07:32:28.270Z,35.70
2019-05-10T07:34:59.123Z,45.52
2019-05-10T07:37:22.364Z,52.50
2019-05-10T07:39:48.198Z,47.70
2019-05-10T07:42:14.429Z,47.65
2019-05-10T07:44:41.542Z,40.95
2019-05-10T07:47:08.930Z,48.23
2019-05-10T07:49:34.777Z,46.25
2019-05-10T07:52:02.780Z,41.75
2019-05-10T07:54:28.670Z,43.13
2019-05-10T07:56:54.539Z,42.70
2019-05-10T07:59:22.036Z,63.63
2019-05-10T08:01:49.263Z,54.88
2019-05-10T08:04:19.696Z,48.10
2019-05-10T08:06:47.563Z,43.42
2019-05-10T08:09:11.236Z,39.00
2019-05-10T08:11:39.049Z,52.62
2019-05-10T08:14:06.503Z,41.63
2019-05-10T08:16:32.869Z,42.35
2019-05-10T08:19:01.243Z,38.60
2019-05-10T08:21:26.790Z,38.83
2019-05-10T08:23:54.079Z,34.75
2019-05-10T08:26:24.195Z,40.80
2019-05-10T08:28:47.733Z,42.90
2019-05-10T08:31:13.617Z,38.63
2019-05-10T08:33:44.207Z,41.88
2019-05-10T08:36:07.434Z,56.48
2019-05-10T08:38:33.313Z,51.08
2019-05-10T08:40:59.178Z,40.10
2019-05-10T08:43:30.032Z,40.33
2019-05-10T08:45:52.678Z,39.03
2019-05-10T08:48:18.520Z,42.25
2019-05-10T08:50:53.338Z,33.38
2019-05-10T08:53:16.446Z,39.90
2019-05-10T08:55:43.086Z,37.63
2019-05-10T08:58:08.227Z,28.83
2019-05-10T09:00:48.932Z,32.23
2019-05-10T09:03:09.465Z,28.40
2019-05-10T09:05:31.899Z,33.15
2019-05-10T09:07:58.247Z,30.68
2019-05-10T09:10:24.122Z,28.00
2019-05-10T09:12:54.150Z,30.32
2019-05-10T09:15:17.640Z,27.93
2019-05-10T09:17:43.509Z,25.72
2019-05-10T09:20:11.998Z,19.85
2019-05-10T09:22:38.692Z,25.90
2019-05-10T09:25:05.518Z,22.85
2019-05-10T09:27:33.278Z,22.50
2019-05-10T09:29:59.627Z,21.77
2019-05-10T09:32:28.782Z,15.08
2019-05-10T09:34:54.367Z,13.68
2019-05-10T09:37:22.456Z,16.85
2019-05-10T09:39:54.879Z,14.35
2019-05-10T09:42:25.027Z,18.50
2019-05-10T09:44:45.557Z,16.75
2019-05-10T09:47:12.069Z,16.12
2019-05-10T09:49:38.051Z,20.10
2019-05-10T09:52:12.035Z,17.45
2019-05-10T09:54:33.531Z,18.82
2019-05-10T09:56:59.198Z,23.45
2019-05-10T09:59:25.032Z,24.47
2019-05-10T10:01:51.249Z,32.17
2019-05-10T10:04:17.896Z,27.42
2019-05-10T10:06:48.213Z,28.40
2019-05-10T10:09:12.825Z,41.85
2019-05-10T10:11:39.034Z,32.33
2019-05-10T10:14:05.253Z,33.73
2019-05-10T10:16:31.487Z,24.25
2019-05-10T10:18:57.364Z,18.90
2019-05-10T10:21:30.569Z,15.25
2019-05-10T10:23:51.217Z,15.35
2019-05-10T10:26:18.779Z,16.45
2019-05-10T10:28:44.727Z,13.05
2019-05-10T10:31:25.972Z,13.00
2019-05-10T10:33:42.870Z,12.58
2019-05-10T10:36:10.511Z,9.38
2019-05-10T10:38:39.747Z,8.98
2019-05-10T10:41:03.387Z,9.43
2019-05-10T10:43:29.252Z,7.92
2019-05-10T10:45:57.215Z,11.45
2019-05-10T10:48:23.113Z,8.43
2019-05-10T10:50:53.896Z,9.23
2019-05-10T10:53:17.961Z,9.93
2019-05-10T10:55:46.091Z,5.37
2019-05-10T10:58:12.305Z,8.30
2019-05-10T11:00:39.330Z,7.83
2019-05-10T11:03:05.422Z,5.28
2019-05-10T11:05:31.264Z,5.95
2019-05-10T11:07:57.548Z,5.95
2019-05-10T11:10:25.365Z,7.25
2019-05-10T11:12:56.116Z,6.80
2019-05-10T11:15:26.101Z,4.87
2019-05-10T11:17:47.138Z,4.47
2019-05-10T11:20:13.505Z,5.75
2019-05-10T11:22:41.859Z,4.87
2019-05-10T11:25:10.432Z,3.52
2019-05-10T11:27:36.285Z,4.30
2019-05-10T11:30:03.465Z,7.80
2019-05-10T11:32:31.371Z,8.45
2019-05-10T11:34:56.923Z,4.70
2019-05-10T11:37:31.049Z,7.22
2019-05-10T11:39:50.900Z,5.30
2019-05-10T11:42:17.358Z,6.08
2019-05-10T11:44:50.249Z,6.87
2019-05-10T11:47:22.989Z,6.42
2019-05-10T11:49:40.671Z,4.85
2019-05-10T11:52:09.882Z,3.70
2019-05-10T11:54:34.642Z,1.57
2019-05-10T11:57:06.111Z,2.95
2019-05-10T11:59:33.949Z,3.87
2019-05-10T12:01:59.428Z,2.05
2019-05-10T12:06:52.346Z,2.87
2019-05-10T12:09:18.186Z,3.42
2019-05-10T12:14:13.767Z,5.17
2019-05-10T12:16:41.948Z,6.75
2019-05-10T12:19:16.972Z,4.83
2019-05-10T12:21:36.442Z,6.17
2019-05-10T12:24:10.467Z,7.15
2019-05-10T12:26:04.973Z,2.27
2019-05-10T12:26:16.200Z,4.67
2019-05-10T12:29:02.693Z,10.05
2019-05-10T12:31:25.695Z,7.60
2019-05-10T12:33:51.919Z,6.87
2019-05-10T12:36:23.454Z,7.58
2019-05-10T12:38:45.715Z,6.08
2019-05-10T12:41:12.246Z,6.33
2019-05-10T12:43:38.064Z,5.62
2019-05-10T12:46:03.932Z,5.03
2019-05-10T12:48:32.105Z,6.33
2019-05-10T12:51:01.987Z,6.17
2019-05-10T12:53:25.429Z,7.47
2019-05-10T12:55:51.292Z,7.25
2019-05-10T12:58:17.159Z,6.37
2019-05-10T13:00:46.579Z,6.72
2019-05-10T13:03:13.077Z,8.98
2019-05-10T13:05:51.920Z,5.42
2019-05-10T13:08:06.481Z,6.30
2019-05-10T13:10:37.043Z,6.20
2019-05-10T13:13:00.590Z,6.17
2019-05-10T13:15:31.087Z,5.33
2019-05-10T13:17:54.098Z,6.37
2019-05-10T13:20:19.978Z,7.90
2019-05-10T13:22:46.775Z,5.50
2019-05-10T13:25:12.641Z,5.87
2019-05-10T13:27:38.725Z,6.10
2019-05-10T13:30:05.132Z,5.85
2019-05-10T13:32:31.666Z,6.28
2019-05-10T13:34:57.519Z,9.28
2019-05-10T13:37:25.234Z,7.80
2019-05-10T13:39:51.574Z,8.83
2019-05-10T13:42:17.808Z,5.50
2019-05-10T13:44:44.538Z,5.05
2019-05-10T13:47:11.077Z,7.45
2019-05-10T13:49:36.987Z,5.78
2019-05-10T13:52:02.817Z,5.75
2019-05-10T13:54:31.146Z,5.53
2019-05-10T13:56:56.337Z,5.58
2019-05-10T13:59:22.192Z,8.60
2019-05-10T14:01:49.629Z,4.40
2019-05-10T14:04:16.312Z,6.35
2019-05-10T14:06:42.106Z,5.62
2019-05-10T14:09:07.938Z,6.20
2019-05-10T14:11:40.216Z,4.50
2019-05-10T14:14:02.459Z,6.33
2019-05-10T14:16:28.703Z,6.90
2019-05-10T14:18:54.626Z,5.20
2019-05-10T14:21:20.503Z,6.37
2019-05-10T14:23:46.344Z,6.15
2019-05-10T14:26:15.973Z,8.03
2019-05-10T14:28:39.825Z,7.30
2019-05-10T14:31:06.065Z,7.92
2019-05-10T14:33:33.216Z,5.37
2019-05-10T14:36:00.933Z,8.30
2019-05-10T14:38:27.645Z,6.50
2019-05-10T14:40:53.846Z,8.53
2019-05-10T14:43:19.726Z,6.05
2019-05-10T14:45:45.895Z,6.45
2019-05-10T14:48:11.782Z,6.65
2019-05-10T14:50:37.651Z,6.55
2019-05-10T14:53:03.483Z,7.15
2019-05-10T14:55:34.634Z,6.60
2019-05-10T14:57:57.085Z,7.92
2019-05-10T15:00:22.957Z,7.00
2019-05-10T15:02:48.786Z,7.65
2019-05-10T15:05:18.010Z,10.25
2019-05-10T15:07:42.790Z,7.62
2019-05-10T15:10:08.611Z,6.87
2019-05-10T15:12:34.482Z,7.00
2019-05-10T15:15:00.663Z,6.65
2019-05-10T15:17:29.972Z,6.35
2019-05-10T15:20:00.012Z,7.65
2019-05-10T15:22:23.128Z,7.90
2019-05-10T15:24:50.044Z,10.63
2019-05-10T15:27:16.081Z,8.85
2019-05-10T15:29:43.854Z,9.73
2019-05-10T15:32:09.664Z,7.45
2019-05-10T15:34:35.543Z,9.38
2019-05-10T15:37:09.138Z,7.42
2019-05-10T15:39:30.565Z,9.30
2019-05-10T15:41:58.988Z,8.68
2019-05-10T15:44:30.635Z,5.85
2019-05-10T15:46:52.074Z,8.55
2019-05-10T15:49:22.661Z,8.05
2019-05-10T15:51:49.149Z,8.43
2019-05-10T15:54:13.647Z,7.50
2019-05-10T15:56:41.502Z,12.47
2019-05-10T15:59:12.927Z,7.05
2019-05-10T16:01:35.675Z,8.45
2019-05-10T16:04:01.508Z,10.82
2019-05-10T16:06:27.376Z,8.80
2019-05-10T16:08:55.159Z,9.55
2019-05-10T16:11:21.575Z,9.33
2019-05-10T16:13:47.401Z,12.35
2019-05-10T16:16:13.269Z,11.15
2019-05-10T16:18:40.265Z,9.90
2019-05-10T16:21:09.698Z,8.25
2019-05-10T16:23:35.453Z,10.88
2019-05-10T16:26:01.245Z,7.97
2019-05-10T16:28:27.092Z,9.88
2019-05-10T16:30:53.003Z,7.55
2019-05-10T16:33:18.826Z,7.70
2019-05-10T16:35:49.856Z,6.97
2019-05-10T16:38:12.348Z,6.58
2019-05-10T16:40:38.557Z,6.95
2019-05-10T16:43:06.990Z,6.83
2019-05-10T16:45:32.024Z,9.23
2019-05-10T16:47:58.327Z,5.92
2019-05-10T16:50:25.996Z,7.55
2019-05-10T16:52:52.829Z,6.78
2019-05-10T16:55:18.679Z,6.80
2019-05-10T16:57:44.530Z,5.47
2019-05-10T17:00:10.783Z,5.65
2019-05-10T17:02:42.166Z,7.20
2019-05-10T17:05:09.796Z,5.25
2019-05-10T17:07:33.650Z,7.92
2019-05-10T17:10:00.105Z,6.35
2019-05-10T17:12:27.572Z,10.55
2019-05-10T17:14:56.487Z,7.20
2019-05-10T17:17:21.910Z,6.45
2019-05-10T17:19:48.302Z,7.60
2019-05-10T17:22:14.174Z,8.25
2019-05-10T17:24:40.043Z,9.85
2019-05-10T17:27:05.894Z,7.55
2019-05-10T17:29:31.742Z,7.85
2019-05-10T17:31:57.606Z,7.50
2019-05-10T17:34:29.051Z,7.33
2019-05-10T17:36:57.368Z,7.58
2019-05-10T17:39:19.395Z,10.03
2019-05-10T17:41:45.266Z,8.58
2019-05-10T17:44:11.671Z,7.22
2019-05-10T17:46:37.497Z,10.58
2019-05-10T17:49:03.391Z,7.92
2019-05-10T17:51:29.540Z,7.95
2019-05-10T17:54:01.465Z,7.83
2019-05-10T17:56:23.059Z,7.60
2019-05-10T17:58:48.941Z,7.75
2019-05-10T18:01:14.785Z,7.53
2019-05-10T18:03:40.989Z,8.03
2019-05-10T18:06:07.243Z,6.85
2019-05-10T18:08:33.174Z,7.53
2019-05-10T18:11:04.102Z,7.33
2019-05-10T18:13:26.638Z,8.90
2019-05-10T18:15:52.517Z,7.60
2019-05-10T18:18:18.393Z,7.12
2019-05-10T18:20:44.914Z,8.03
2019-05-10T18:23:20.445Z,8.10
2019-05-10T18:25:39.176Z,8.35
2019-05-10T18:28:05.064Z,8.93
2019-05-10T18:30:30.930Z,9.30
2019-05-10T18:32:56.813Z,10.93
2019-05-10T18:35:22.633Z,10.20
2019-05-10T18:37:48.525Z,9.80
2019-05-10T18:40:14.633Z,13.10
2019-05-10T18:42:40.890Z,13.13
2019-05-10T18:45:08.777Z,12.30
2019-05-10T18:47:35.075Z,10.90
2019-05-10T18:50:00.952Z,11.38
2019-05-10T18:52:27.117Z,12.65
2019-05-10T18:54:52.997Z,14.05
2019-05-10T18:57:19.576Z,10.93
2019-05-10T18:59:47.081Z,11.83
2019-05-10T19:02:17.854Z,13.48
2019-05-10T19:04:45.941Z,11.53
2019-05-10T19:07:10.397Z,15.32
2019-05-10T19:09:36.871Z,14.78
2019-05-10T19:12:02.759Z,13.90
2019-05-10T19:14:29.765Z,12.68
2019-05-10T19:16:55.971Z,13.50
2019-05-10T19:19:22.605Z,12.95
2019-05-10T19:21:48.825Z,12.35
2019-05-10T19:24:14.671Z,13.98
2019-05-10T19:26:40.491Z,13.83
2019-05-10T19:29:06.884Z,15.98
2019-05-10T19:31:37.906Z,16.10
2019-05-10T19:34:00.606Z,17.98
2019-05-10T19:36:26.496Z,16.82
2019-05-10T19:38:52.841Z,16.62
2019-05-10T19:41:20.001Z,14.58
2019-05-10T19:43:49.932Z,13.13
2019-05-10T19:46:14.106Z,18.65
2019-05-10T19:48:39.981Z,16.27
2019-05-10T19:51:09.443Z,19.67
2019-05-10T19:53:36.480Z,21.93
2019-05-10T19:56:04.144Z,17.73
2019-05-10T19:58:32.281Z,18.00
2019-05-10T20:00:58.781Z,17.50
2019-05-10T20:03:24.670Z,19.12
2019-05-10T20:05:50.504Z,19.02
2019-05-10T20:08:16.349Z,16.57
2019-05-10T20:10:42.550Z,23.30
2019-05-10T20:13:08.439Z,20.48
2019-05-10T20:15:34.316Z,19.55
2019-05-10T20:18:00.788Z,23.73
2019-05-10T20:20:26.967Z,21.42
2019-05-10T20:22:53.288Z,24.45
2019-05-10T20:25:19.088Z,25.45
2019-05-10T20:27:44.969Z,32.90
2019-05-10T20:30:11.650Z,28.10
2019-05-10T20:32:37.528Z,24.90
2019-05-10T20:35:07.206Z,23.42
2019-05-10T20:37:33.430Z,26.80
2019-05-10T20:39:59.266Z,30.88
2019-05-10T20:42:25.510Z,27.73
2019-05-10T20:45:06.067Z,24.30
2019-05-10T20:47:19.365Z,25.25
2019-05-10T20:49:45.799Z,22.07
2019-05-10T20:52:11.603Z,25.65
2019-05-10T20:54:37.861Z,27.60
2019-05-10T20:57:03.730Z,24.70
2019-05-10T20:59:29.588Z,27.95
2019-05-10T21:01:55.507Z,26.62
2019-05-10T21:04:21.330Z,32.17
2019-05-10T21:06:47.221Z,36.70
2019-05-10T21:09:13.053Z,32.70
2019-05-10T21:11:39.421Z,35.15
2019-05-10T21:14:05.642Z,37.08
2019-05-10T21:16:31.533Z,37.58
2019-05-10T21:18:57.381Z,33.23
2019-05-10T21:21:23.216Z,35.17
2019-05-10T21:23:49.083Z,35.63
2019-05-10T21:26:14.963Z,38.63
2019-05-10T21:28:41.370Z,39.90
2019-05-10T21:31:07.223Z,36.00
2019-05-10T21:33:33.428Z,33.28
2019-05-10T21:35:59.327Z,31.97
2019-05-10T21:38:33.222Z,30.15
2019-05-10T21:40:53.133Z,33.40
2019-05-10T21:43:19.382Z,28.73
2019-05-10T21:45:45.621Z,31.15
2019-05-10T21:48:11.354Z,27.87
2019-05-10T21:50:37.227Z,27.62
2019-05-10T21:53:03.114Z,26.82
2019-05-10T21:55:28.942Z,30.75
2019-05-10T21:57:55.172Z,28.90
2019-05-10T22:00:23.448Z,28.65
2019-05-10T22:02:49.284Z,27.95
2019-05-10T22:05:15.111Z,26.40
2019-05-10T22:07:41.525Z,28.05
2019-05-10T22:10:07.452Z,29.48
2019-05-10T22:12:33.773Z,35.50
2019-05-10T22:15:00.212Z,33.18
2019-05-10T22:17:26.432Z,32.10
2019-05-10T22:19:52.207Z,30.72
2019-05-10T22:22:18.486Z,32.70
2019-05-10T22:24:44.722Z,33.28
2019-05-10T22:27:10.548Z,30.08
2019-05-10T22:29:36.400Z,30.52
2019-05-10T22:32:02.277Z,34.80
2019-05-10T22:34:28.122Z,33.10
2019-05-10T22:36:54.631Z,37.50
2019-05-10T22:39:20.860Z,36.77
2019-05-10T22:41:47.087Z,35.08
2019-05-10T22:44:12.926Z,33.33
2019-05-10T22:46:38.800Z,27.95
2019-05-10T22:49:04.990Z,30.27
2019-05-10T22:51:30.853Z,29.70
2019-05-10T22:53:59.836Z,26.42
2019-05-10T22:56:24.313Z,28.62
2019-05-10T22:58:50.672Z,28.00
2019-05-10T23:01:16.499Z,25.88
2019-05-10T23:03:42.336Z,27.52
2019-05-10T23:06:08.204Z,27.15
2019-05-10T23:08:34.357Z,27.32
2019-05-10T23:11:00.997Z,31.50
2019-05-10T23:13:26.841Z,29.50
2019-05-10T23:15:52.788Z,28.07
2019-05-10T23:18:18.666Z,28.57
2019-05-10T23:20:44.522Z,32.50
2019-05-10T23:23:10.386Z,32.10
2019-05-10T23:25:36.276Z,31.17
2019-05-10T23:28:02.554Z,29.02
2019-05-10T23:30:28.795Z,34.33
2019-05-10T23:32:54.655Z,31.62
2019-05-10T23:35:20.489Z,33.58
2019-05-10T23:37:46.651Z,37.42
2019-05-10T23:40:14.426Z,39.92
2019-05-10T23:42:40.310Z,36.28
2019-05-10T23:45:06.151Z,39.13
2019-05-10T23:47:32.386Z,34.50
2019-05-10T23:49:58.617Z,40.70
2019-05-10T23:52:24.846Z,39.55
2019-05-10T23:54:50.673Z,39.73
2019-05-10T23:57:16.889Z,42.38
2019-05-10T23:59:42.772Z,44.15
